sensor_id;sensor_type;location;lat;lon;timestamp;P1;durP1;ratioP1;P2;durP2;ratioP2
30173;SDS011;16985;50.814;8.530;2023-04-03T00:00:29;4.68;;;1.90;;
30173;SDS011;16985;50.814;8.530;2023-04-03T00:02:56;3.10;;;1.35;;
30173;SDS011;16985;50.814;8.530;2023-04-03T00:05:22;4.45;;;2.22;;
30173;SDS011;16985;50.814;8.530;2023-04-03T00:07:48;6.97;;;1.85;;
30173;SDS011;16985;50.814;8.530;2023-04-03T00:10:15;3.47;;;1.80;;
30173;SDS011;16985;50.814;8.530;2023-04-03T00:12:41;3.50;;;1.50;;
30173;SDS011;16985;50.814;8.530;2023-04-03T00:15:07;3.17;;;1.95;;
30173;SDS011;16985;50.814;8.530;2023-04-03T00:17:33;5.68;;;1.52;;
30173;SDS011;16985;50.814;8.530;2023-04-03T00:19:59;7.47;;;2.20;;
30173;SDS011;16985;50.814;8.530;2023-04-03T00:22:25;8.60;;;2.63;;
30173;SDS011;16985;50.814;8.530;2023-04-03T00:24:53;6.80;;;2.03;;
30173;SDS011;16985;50.814;8.530;2023-04-03T00:27:20;4.10;;;1.80;;
30173;SDS011;16985;50.814;8.530;2023-04-03T00:29:46;6.07;;;1.98;;
30173;SDS011;16985;50.814;8.530;2023-04-03T00:32:12;4.60;;;1.60;;
30173;SDS011;16985;50.814;8.530;2023-04-03T00:34:39;9.90;;;2.10;;
30173;SDS011;16985;50.814;8.530;2023-04-03T00:37:04;4.95;;;1.67;;
30173;SDS011;16985;50.814;8.530;2023-04-03T00:39:31;2.97;;;1.65;;
30173;SDS011;16985;50.814;8.530;2023-04-03T00:41:56;2.65;;;1.50;;
30173;SDS011;16985;50.814;8.530;2023-04-03T00:45:21;3.90;;;1.40;;
30173;SDS011;16985;50.814;8.530;2023-04-03T00:47:11;2.17;;;1.35;;
30173;SDS011;16985;50.814;8.530;2023-04-03T00:49:41;3.13;;;2.03;;
30173;SDS011;16985;50.814;8.530;2023-04-03T00:52:10;3.75;;;1.92;;
30173;SDS011;16985;50.814;8.530;2023-04-03T00:54:42;3.45;;;1.42;;
30173;SDS011;16985;50.814;8.530;2023-04-03T00:59:38;6.22;;;1.73;;
30173;SDS011;16985;50.814;8.530;2023-04-03T01:02:09;3.92;;;1.75;;
30173;SDS011;16985;50.814;8.530;2023-04-03T01:04:36;5.20;;;1.50;;
30173;SDS011;16985;50.814;8.530;2023-04-03T01:07:17;2.72;;;1.50;;
30173;SDS011;16985;50.814;8.530;2023-04-03T01:09:48;4.68;;;2.10;;
30173;SDS011;16985;50.814;8.530;2023-04-03T01:12:19;3.88;;;1.77;;
30173;SDS011;16985;50.814;8.530;2023-04-03T01:14:52;8.20;;;1.40;;
30173;SDS011;16985;50.814;8.530;2023-04-03T01:25:36;13.05;;;3.22;;
30173;SDS011;16985;50.814;8.530;2023-04-03T01:28:26;6.35;;;1.75;;
30173;SDS011;16985;50.814;8.530;2023-04-03T01:33:51;3.33;;;1.70;;
30173;SDS011;16985;50.814;8.530;2023-04-03T01:36:19;5.03;;;1.63;;
30173;SDS011;16985;50.814;8.530;2023-04-03T01:38:54;3.40;;;1.92;;
30173;SDS011;16985;50.814;8.530;2023-04-03T01:41:21;11.02;;;2.72;;
30173;SDS011;16985;50.814;8.530;2023-04-03T01:43:53;5.70;;;2.42;;
30173;SDS011;16985;50.814;8.530;2023-04-03T01:46:19;15.00;;;2.05;;
30173;SDS011;16985;50.814;8.530;2023-04-03T01:48:45;5.57;;;1.55;;
30173;SDS011;16985;50.814;8.530;2023-04-03T01:51:12;3.58;;;1.75;;
30173;SDS011;16985;50.814;8.530;2023-04-03T01:53:37;4.65;;;2.13;;
30173;SDS011;16985;50.814;8.530;2023-04-03T01:56:03;4.10;;;1.42;;
30173;SDS011;16985;50.814;8.530;2023-04-03T01:58:31;3.47;;;1.67;;
30173;SDS011;16985;50.814;8.530;2023-04-03T02:00:57;5.53;;;1.75;;
30173;SDS011;16985;50.814;8.530;2023-04-03T02:03:22;5.38;;;1.50;;
30173;SDS011;16985;50.814;8.530;2023-04-03T02:05:49;3.58;;;1.70;;
30173;SDS011;16985;50.814;8.530;2023-04-03T02:08:15;5.22;;;1.63;;
30173;SDS011;16985;50.814;8.530;2023-04-03T02:10:43;4.70;;;1.57;;
30173;SDS011;16985;50.814;8.530;2023-04-03T02:13:14;5.90;;;2.03;;
30173;SDS011;16985;50.814;8.530;2023-04-03T02:15:41;5.07;;;1.60;;
30173;SDS011;16985;50.814;8.530;2023-04-03T02:18:06;3.55;;;1.80;;
30173;SDS011;16985;50.814;8.530;2023-04-03T02:20:32;3.75;;;1.67;;
30173;SDS011;16985;50.814;8.530;2023-04-03T02:22:59;5.10;;;1.50;;
30173;SDS011;16985;50.814;8.530;2023-04-03T02:25:26;4.07;;;2.40;;
30173;SDS011;16985;50.814;8.530;2023-04-03T02:27:52;4.32;;;1.70;;
30173;SDS011;16985;50.814;8.530;2023-04-03T02:30:18;5.88;;;1.80;;
30173;SDS011;16985;50.814;8.530;2023-04-03T02:32:44;4.38;;;1.70;;
30173;SDS011;16985;50.814;8.530;2023-04-03T02:35:10;5.55;;;1.48;;
30173;SDS011;16985;50.814;8.530;2023-04-03T02:37:38;5.77;;;1.77;;
30173;SDS011;16985;50.814;8.530;2023-04-03T02:40:05;4.47;;;1.77;;
30173;SDS011;16985;50.814;8.530;2023-04-03T02:42:31;4.60;;;1.52;;
30173;SDS011;16985;50.814;8.530;2023-04-03T02:44:57;2.40;;;1.73;;
30173;SDS011;16985;50.814;8.530;2023-04-03T02:47:25;5.40;;;2.00;;
30173;SDS011;16985;50.814;8.530;2023-04-03T02:49:53;7.50;;;2.00;;
30173;SDS011;16985;50.814;8.530;2023-04-03T02:52:19;4.63;;;1.80;;
30173;SDS011;16985;50.814;8.530;2023-04-03T02:54:47;4.95;;;2.30;;
30173;SDS011;16985;50.814;8.530;2023-04-03T02:57:13;6.47;;;2.00;;
30173;SDS011;16985;50.814;8.530;2023-04-03T02:59:39;3.70;;;1.70;;
30173;SDS011;16985;50.814;8.530;2023-04-03T03:02:07;5.50;;;2.13;;
30173;SDS011;16985;50.814;8.530;2023-04-03T03:04:33;5.18;;;1.88;;
30173;SDS011;16985;50.814;8.530;2023-04-03T03:07:00;5.85;;;1.73;;
30173;SDS011;16985;50.814;8.530;2023-04-03T03:09:28;4.20;;;1.90;;
30173;SDS011;16985;50.814;8.530;2023-04-03T03:11:55;2.00;;;1.60;;
30173;SDS011;16985;50.814;8.530;2023-04-03T03:14:21;6.32;;;1.80;;
30173;SDS011;16985;50.814;8.530;2023-04-03T03:16:48;7.65;;;2.08;;
30173;SDS011;16985;50.814;8.530;2023-04-03T03:19:14;4.05;;;2.00;;
30173;SDS011;16985;50.814;8.530;2023-04-03T03:21:40;5.10;;;2.08;;
30173;SDS011;16985;50.814;8.530;2023-04-03T03:24:06;4.03;;;1.80;;
30173;SDS011;16985;50.814;8.530;2023-04-03T03:26:32;3.47;;;1.95;;
30173;SDS011;16985;50.814;8.530;2023-04-03T03:28:58;6.70;;;2.00;;
30173;SDS011;16985;50.814;8.530;2023-04-03T03:31:25;5.43;;;2.40;;
30173;SDS011;16985;50.814;8.530;2023-04-03T03:33:50;5.10;;;1.60;;
30173;SDS011;16985;50.814;8.530;2023-04-03T03:36:17;6.00;;;2.35;;
30173;SDS011;16985;50.814;8.530;2023-04-03T03:38:43;5.38;;;2.03;;
30173;SDS011;16985;50.814;8.530;2023-04-03T03:41:09;4.38;;;2.47;;
30173;SDS011;16985;50.814;8.530;2023-04-03T03:43:36;5.30;;;1.90;;
30173;SDS011;16985;50.814;8.530;2023-04-03T03:46:03;5.22;;;2.00;;
30173;SDS011;16985;50.814;8.530;2023-04-03T03:48:30;9.90;;;2.22;;
30173;SDS011;16985;50.814;8.530;2023-04-03T03:50:56;6.68;;;2.13;;
30173;SDS011;16985;50.814;8.530;2023-04-03T03:53:25;2.03;;;1.75;;
30173;SDS011;16985;50.814;8.530;2023-04-03T03:55:54;8.30;;;2.20;;
30173;SDS011;16985;50.814;8.530;2023-04-03T04:00:49;5.13;;;2.13;;
30173;SDS011;16985;50.814;8.530;2023-04-03T04:03:15;2.72;;;1.45;;
30173;SDS011;16985;50.814;8.530;2023-04-03T04:05:43;3.20;;;2.00;;
30173;SDS011;16985;50.814;8.530;2023-04-03T04:08:09;4.63;;;1.83;;
30173;SDS011;16985;50.814;8.530;2023-04-03T04:10:35;8.18;;;2.53;;
30173;SDS011;16985;50.814;8.530;2023-04-03T04:15:30;10.80;;;2.00;;
30173;SDS011;16985;50.814;8.530;2023-04-03T04:17:56;8.18;;;2.30;;
30173;SDS011;16985;50.814;8.530;2023-04-03T04:20:22;6.40;;;2.30;;
30173;SDS011;16985;50.814;8.530;2023-04-03T04:22:48;9.02;;;2.47;;
30173;SDS011;16985;50.814;8.530;2023-04-03T04:25:15;5.22;;;2.15;;
30173;SDS011;16985;50.814;8.530;2023-04-03T04:27:41;7.30;;;2.30;;
30173;SDS011;16985;50.814;8.530;2023-04-03T04:30:08;6.70;;;1.85;;
30173;SDS011;16985;50.814;8.530;2023-04-03T04:32:36;3.42;;;1.95;;
30173;SDS011;16985;50.814;8.530;2023-04-03T04:35:03;9.07;;;2.13;;
30173;SDS011;16985;50.814;8.530;2023-04-03T04:37:31;8.32;;;2.05;;
30173;SDS011;16985;50.814;8.530;2023-04-03T04:39:58;4.22;;;1.75;;
30173;SDS011;16985;50.814;8.530;2023-04-03T04:42:24;3.65;;;1.90;;
30173;SDS011;16985;50.814;8.530;2023-04-03T04:44:50;7.75;;;2.42;;
30173;SDS011;16985;50.814;8.530;2023-04-03T04:47:16;5.57;;;2.10;;
30173;SDS011;16985;50.814;8.530;2023-04-03T04:49:42;4.18;;;3.03;;
30173;SDS011;16985;50.814;8.530;2023-04-03T04:52:08;5.90;;;1.85;;
30173;SDS011;16985;50.814;8.530;2023-04-03T04:54:35;7.88;;;2.22;;
30173;SDS011;16985;50.814;8.530;2023-04-03T04:57:01;6.15;;;2.15;;
30173;SDS011;16985;50.814;8.530;2023-04-03T04:59:28;7.68;;;2.65;;
30173;SDS011;16985;50.814;8.530;2023-04-03T05:01:56;6.85;;;2.20;;
30173;SDS011;16985;50.814;8.530;2023-04-03T05:04:22;4.70;;;2.38;;
30173;SDS011;16985;50.814;8.530;2023-04-03T05:06:53;5.32;;;2.38;;
30173;SDS011;16985;50.814;8.530;2023-04-03T05:09:23;8.43;;;2.10;;
30173;SDS011;16985;50.814;8.530;2023-04-03T05:11:50;9.35;;;2.40;;
30173;SDS011;16985;50.814;8.530;2023-04-03T05:14:18;4.65;;;1.98;;
30173;SDS011;16985;50.814;8.530;2023-04-03T05:16:44;3.58;;;2.05;;
30173;SDS011;16985;50.814;8.530;2023-04-03T05:19:11;7.82;;;2.40;;
30173;SDS011;16985;50.814;8.530;2023-04-03T05:21:38;7.22;;;2.00;;
30173;SDS011;16985;50.814;8.530;2023-04-03T05:24:09;5.00;;;2.10;;
30173;SDS011;16985;50.814;8.530;2023-04-03T05:26:38;3.67;;;1.70;;
30173;SDS011;16985;50.814;8.530;2023-04-03T05:29:05;8.57;;;2.40;;
30173;SDS011;16985;50.814;8.530;2023-04-03T05:31:31;8.68;;;2.63;;
30173;SDS011;16985;50.814;8.530;2023-04-03T05:33:57;3.25;;;2.13;;
30173;SDS011;16985;50.814;8.530;2023-04-03T05:36:25;9.18;;;2.38;;
30173;SDS011;16985;50.814;8.530;2023-04-03T05:38:55;4.80;;;2.10;;
30173;SDS011;16985;50.814;8.530;2023-04-03T05:41:22;8.43;;;2.45;;
30173;SDS011;16985;50.814;8.530;2023-04-03T05:43:49;4.60;;;2.40;;
30173;SDS011;16985;50.814;8.530;2023-04-03T05:46:17;6.88;;;2.30;;
30173;SDS011;16985;50.814;8.530;2023-04-03T05:48:47;7.03;;;2.20;;
30173;SDS011;16985;50.814;8.530;2023-04-03T05:51:18;11.18;;;3.40;;
30173;SDS011;16985;50.814;8.530;2023-04-03T05:53:55;8.00;;;2.92;;
30173;SDS011;16985;50.814;8.530;2023-04-03T05:56:29;5.13;;;2.55;;
30173;SDS011;16985;50.814;8.530;2023-04-03T05:58:55;6.68;;;2.58;;
30173;SDS011;16985;50.814;8.530;2023-04-03T06:01:22;4.50;;;2.30;;
30173;SDS011;16985;50.814;8.530;2023-04-03T06:03:48;4.80;;;2.70;;
30173;SDS011;16985;50.814;8.530;2023-04-03T06:06:14;9.98;;;2.20;;
30173;SDS011;16985;50.814;8.530;2023-04-03T06:08:40;7.45;;;2.40;;
30173;SDS011;16985;50.814;8.530;2023-04-03T06:11:06;10.55;;;2.60;;
30173;SDS011;16985;50.814;8.530;2023-04-03T06:13:33;5.93;;;2.30;;
30173;SDS011;16985;50.814;8.530;2023-04-03T06:16:00;4.43;;;2.45;;
30173;SDS011;16985;50.814;8.530;2023-04-03T06:18:27;6.85;;;2.75;;
30173;SDS011;16985;50.814;8.530;2023-04-03T06:20:54;13.02;;;4.53;;
30173;SDS011;16985;50.814;8.530;2023-04-03T06:23:19;7.35;;;3.28;;
30173;SDS011;16985;50.814;8.530;2023-04-03T06:25:45;6.18;;;2.47;;
30173;SDS011;16985;50.814;8.530;2023-04-03T06:28:12;12.35;;;3.17;;
30173;SDS011;16985;50.814;8.530;2023-04-03T06:30:37;7.80;;;2.80;;
30173;SDS011;16985;50.814;8.530;2023-04-03T06:33:03;10.13;;;2.50;;
30173;SDS011;16985;50.814;8.530;2023-04-03T06:35:29;7.13;;;3.05;;
30173;SDS011;16985;50.814;8.530;2023-04-03T06:37:56;12.35;;;3.53;;
30173;SDS011;16985;50.814;8.530;2023-04-03T06:40:23;7.75;;;2.67;;
30173;SDS011;16985;50.814;8.530;2023-04-03T06:42:51;11.25;;;2.67;;
30173;SDS011;16985;50.814;8.530;2023-04-03T06:45:18;6.80;;;3.20;;
30173;SDS011;16985;50.814;8.530;2023-04-03T06:47:45;6.10;;;2.80;;
30173;SDS011;16985;50.814;8.530;2023-04-03T06:50:11;6.68;;;2.95;;
30173;SDS011;16985;50.814;8.530;2023-04-03T06:52:39;7.15;;;2.90;;
30173;SDS011;16985;50.814;8.530;2023-04-03T06:55:05;8.15;;;2.97;;
30173;SDS011;16985;50.814;8.530;2023-04-03T06:57:32;7.90;;;2.60;;
30173;SDS011;16985;50.814;8.530;2023-04-03T06:59:58;8.57;;;2.78;;
30173;SDS011;16985;50.814;8.530;2023-04-03T07:02:23;6.90;;;2.47;;
30173;SDS011;16985;50.814;8.530;2023-04-03T07:04:49;8.75;;;3.05;;
30173;SDS011;16985;50.814;8.530;2023-04-03T07:07:15;10.82;;;2.83;;
30173;SDS011;16985;50.814;8.530;2023-04-03T07:09:42;9.38;;;3.60;;
30173;SDS011;16985;50.814;8.530;2023-04-03T07:12:08;11.00;;;4.30;;
30173;SDS011;16985;50.814;8.530;2023-04-03T07:14:34;5.47;;;3.30;;
30173;SDS011;16985;50.814;8.530;2023-04-03T07:17:00;7.07;;;3.08;;
30173;SDS011;16985;50.814;8.530;2023-04-03T07:19:26;11.30;;;3.85;;
30173;SDS011;16985;50.814;8.530;2023-04-03T07:21:53;8.88;;;2.60;;
30173;SDS011;16985;50.814;8.530;2023-04-03T07:24:19;6.70;;;2.95;;
30173;SDS011;16985;50.814;8.530;2023-04-03T07:26:48;6.13;;;3.03;;
30173;SDS011;16985;50.814;8.530;2023-04-03T07:29:17;6.55;;;2.72;;
30173;SDS011;16985;50.814;8.530;2023-04-03T07:31:45;5.38;;;2.72;;
30173;SDS011;16985;50.814;8.530;2023-04-03T07:34:10;8.63;;;3.47;;
30173;SDS011;16985;50.814;8.530;2023-04-03T07:36:36;11.38;;;3.13;;
30173;SDS011;16985;50.814;8.530;2023-04-03T07:39:02;13.25;;;2.85;;
30173;SDS011;16985;50.814;8.530;2023-04-03T07:41:28;8.80;;;3.38;;
30173;SDS011;16985;50.814;8.530;2023-04-03T07:43:55;5.57;;;2.53;;
30173;SDS011;16985;50.814;8.530;2023-04-03T07:46:21;8.27;;;3.03;;
30173;SDS011;16985;50.814;8.530;2023-04-03T07:48:48;7.57;;;2.83;;
30173;SDS011;16985;50.814;8.530;2023-04-03T07:51:14;6.60;;;2.83;;
30173;SDS011;16985;50.814;8.530;2023-04-03T07:53:40;7.05;;;2.85;;
30173;SDS011;16985;50.814;8.530;2023-04-03T07:56:06;12.00;;;3.25;;
30173;SDS011;16985;50.814;8.530;2023-04-03T07:58:32;5.65;;;2.28;;
30173;SDS011;16985;50.814;8.530;2023-04-03T08:00:58;8.10;;;2.67;;
30173;SDS011;16985;50.814;8.530;2023-04-03T08:03:24;5.75;;;2.65;;
30173;SDS011;16985;50.814;8.530;2023-04-03T08:05:50;9.02;;;3.17;;
30173;SDS011;16985;50.814;8.530;2023-04-03T08:08:17;5.63;;;3.30;;
30173;SDS011;16985;50.814;8.530;2023-04-03T08:10:50;13.88;;;3.47;;
30173;SDS011;16985;50.814;8.530;2023-04-03T08:13:18;6.80;;;2.80;;
30173;SDS011;16985;50.814;8.530;2023-04-03T08:15:45;6.60;;;2.80;;
30173;SDS011;16985;50.814;8.530;2023-04-03T08:18:11;4.32;;;3.20;;
30173;SDS011;16985;50.814;8.530;2023-04-03T08:20:39;8.57;;;3.22;;
30173;SDS011;16985;50.814;8.530;2023-04-03T08:23:06;5.25;;;2.80;;
30173;SDS011;16985;50.814;8.530;2023-04-03T08:25:39;8.50;;;3.08;;
30173;SDS011;16985;50.814;8.530;2023-04-03T08:28:06;8.25;;;3.03;;
30173;SDS011;16985;50.814;8.530;2023-04-03T08:30:35;5.40;;;2.67;;
30173;SDS011;16985;50.814;8.530;2023-04-03T08:33:01;4.70;;;2.67;;
30173;SDS011;16985;50.814;8.530;2023-04-03T08:35:27;4.75;;;2.20;;
30173;SDS011;16985;50.814;8.530;2023-04-03T08:37:53;9.20;;;2.83;;
30173;SDS011;16985;50.814;8.530;2023-04-03T08:40:19;9.32;;;3.38;;
30173;SDS011;16985;50.814;8.530;2023-04-03T08:42:48;8.07;;;2.97;;
30173;SDS011;16985;50.814;8.530;2023-04-03T08:45:53;8.55;;;2.65;;
30173;SDS011;16985;50.814;8.530;2023-04-03T08:48:24;9.50;;;3.00;;
30173;SDS011;16985;50.814;8.530;2023-04-03T08:50:57;11.50;;;2.90;;
30173;SDS011;16985;50.814;8.530;2023-04-03T08:53:28;8.73;;;3.17;;
30173;SDS011;16985;50.814;8.530;2023-04-03T08:55:59;8.95;;;2.83;;
30173;SDS011;16985;50.814;8.530;2023-04-03T08:58:35;8.20;;;2.95;;
30173;SDS011;16985;50.814;8.530;2023-04-03T09:04:02;7.05;;;3.00;;
30173;SDS011;16985;50.814;8.530;2023-04-03T09:06:36;5.72;;;2.58;;
30173;SDS011;16985;50.814;8.530;2023-04-03T09:14:38;5.35;;;2.50;;
30173;SDS011;16985;50.814;8.530;2023-04-03T09:17:21;6.55;;;2.90;;
30173;SDS011;16985;50.814;8.530;2023-04-03T09:20:25;9.25;;;2.63;;
30173;SDS011;16985;50.814;8.530;2023-04-03T09:23:18;2.90;;;2.25;;
30173;SDS011;16985;50.814;8.530;2023-04-03T09:25:51;5.53;;;2.33;;
30173;SDS011;16985;50.814;8.530;2023-04-03T09:28:24;8.82;;;1.88;;
30173;SDS011;16985;50.814;8.530;2023-04-03T09:30:50;4.22;;;2.42;;
30173;SDS011;16985;50.814;8.530;2023-04-03T09:33:16;4.82;;;2.55;;
30173;SDS011;16985;50.814;8.530;2023-04-03T09:35:42;4.53;;;2.47;;
30173;SDS011;16985;50.814;8.530;2023-04-03T09:45:52;6.32;;;2.65;;
30173;SDS011;16985;50.814;8.530;2023-04-03T09:48:20;5.97;;;2.90;;
30173;SDS011;16985;50.814;8.530;2023-04-03T09:58:43;6.70;;;2.33;;
30173;SDS011;16985;50.814;8.530;2023-04-03T10:04:06;3.88;;;2.25;;
30173;SDS011;16985;50.814;8.530;2023-04-03T10:06:38;6.45;;;2.22;;
30173;SDS011;16985;50.814;8.530;2023-04-03T10:12:16;6.75;;;2.33;;
30173;SDS011;16985;50.814;8.530;2023-04-03T10:14:56;4.88;;;2.05;;
30173;SDS011;16985;50.814;8.530;2023-04-03T10:23:00;3.97;;;1.88;;
30173;SDS011;16985;50.814;8.530;2023-04-03T10:28:51;6.00;;;2.65;;
30173;SDS011;16985;50.814;8.530;2023-04-03T10:31:25;5.18;;;2.20;;
30173;SDS011;16985;50.814;8.530;2023-04-03T10:34:06;3.38;;;1.80;;
30173;SDS011;16985;50.814;8.530;2023-04-03T10:37:00;5.43;;;2.33;;
30173;SDS011;16985;50.814;8.530;2023-04-03T10:42:54;3.70;;;1.92;;
30173;SDS011;16985;50.814;8.530;2023-04-03T10:50:58;4.50;;;1.80;;
30173;SDS011;16985;50.814;8.530;2023-04-03T10:56:39;6.35;;;1.83;;
30173;SDS011;16985;50.814;8.530;2023-04-03T11:02:07;4.93;;;1.60;;
30173;SDS011;16985;50.814;8.530;2023-04-03T11:05:06;3.25;;;1.67;;
30173;SDS011;16985;50.814;8.530;2023-04-03T11:07:48;3.60;;;2.15;;
30173;SDS011;16985;50.814;8.530;2023-04-03T11:10:21;2.20;;;1.60;;
30173;SDS011;16985;50.814;8.530;2023-04-03T11:13:13;3.05;;;1.73;;
30173;SDS011;16985;50.814;8.530;2023-04-03T11:15:45;3.83;;;2.15;;
30173;SDS011;16985;50.814;8.530;2023-04-03T11:18:15;5.45;;;1.85;;
30173;SDS011;16985;50.814;8.530;2023-04-03T11:21:26;5.55;;;1.67;;
30173;SDS011;16985;50.814;8.530;2023-04-03T11:24:13;5.50;;;1.88;;
30173;SDS011;16985;50.814;8.530;2023-04-03T11:26:55;7.82;;;2.00;;
30173;SDS011;16985;50.814;8.530;2023-04-03T11:29:24;2.25;;;1.60;;
30173;SDS011;16985;50.814;8.530;2023-04-03T11:34:44;6.35;;;3.45;;
30173;SDS011;16985;50.814;8.530;2023-04-03T11:42:41;6.00;;;2.20;;
30173;SDS011;16985;50.814;8.530;2023-04-03T11:45:46;7.03;;;2.78;;
30173;SDS011;16985;50.814;8.530;2023-04-03T11:50:57;7.78;;;2.60;;
30173;SDS011;16985;50.814;8.530;2023-04-03T11:53:41;3.33;;;1.95;;
30173;SDS011;16985;50.814;8.530;2023-04-03T12:02:13;4.23;;;1.70;;
30173;SDS011;16985;50.814;8.530;2023-04-03T12:04:38;2.55;;;1.67;;
30173;SDS011;16985;50.814;8.530;2023-04-03T12:08:15;5.32;;;1.42;;
30173;SDS011;16985;50.814;8.530;2023-04-03T12:13:33;5.53;;;1.40;;
30173;SDS011;16985;50.814;8.530;2023-04-03T12:16:21;4.53;;;1.98;;
30173;SDS011;16985;50.814;8.530;2023-04-03T12:29:27;3.13;;;1.40;;
30173;SDS011;16985;50.814;8.530;2023-04-03T12:40:39;4.25;;;1.08;;
30173;SDS011;16985;50.814;8.530;2023-04-03T12:46:03;5.93;;;1.83;;
30173;SDS011;16985;50.814;8.530;2023-04-03T12:48:39;4.03;;;1.75;;
30173;SDS011;16985;50.814;8.530;2023-04-03T12:51:18;3.30;;;1.63;;
30173;SDS011;16985;50.814;8.530;2023-04-03T12:53:51;1.95;;;1.58;;
30173;SDS011;16985;50.814;8.530;2023-04-03T12:59:16;2.38;;;1.23;;
30173;SDS011;16985;50.814;8.530;2023-04-03T13:02:01;3.80;;;1.35;;
30173;SDS011;16985;50.814;8.530;2023-04-03T13:04:28;6.75;;;1.70;;
30173;SDS011;16985;50.814;8.530;2023-04-03T13:06:56;8.50;;;1.60;;
30173;SDS011;16985;50.814;8.530;2023-04-03T13:11:58;4.15;;;1.80;;
30173;SDS011;16985;50.814;8.530;2023-04-03T13:14:36;4.72;;;1.42;;
30173;SDS011;16985;50.814;8.530;2023-04-03T13:17:03;4.45;;;1.50;;
30173;SDS011;16985;50.814;8.530;2023-04-03T13:19:39;3.58;;;1.45;;
30173;SDS011;16985;50.814;8.530;2023-04-03T13:22:30;2.97;;;1.60;;
30173;SDS011;16985;50.814;8.530;2023-04-03T13:25:24;6.43;;;1.55;;
30173;SDS011;16985;50.814;8.530;2023-04-03T13:27:55;2.83;;;1.45;;
30173;SDS011;16985;50.814;8.530;2023-04-03T13:30:25;6.00;;;1.60;;
30173;SDS011;16985;50.814;8.530;2023-04-03T13:32:56;4.10;;;1.42;;
30173;SDS011;16985;50.814;8.530;2023-04-03T13:40:48;2.72;;;1.50;;
30173;SDS011;16985;50.814;8.530;2023-04-03T13:43:20;5.32;;;1.83;;
30173;SDS011;16985;50.814;8.530;2023-04-03T13:45:53;1.83;;;0.98;;
30173;SDS011;16985;50.814;8.530;2023-04-03T13:48:41;2.80;;;1.15;;
30173;SDS011;16985;50.814;8.530;2023-04-03T13:51:18;1.50;;;1.10;;
30173;SDS011;16985;50.814;8.530;2023-04-03T13:53:55;5.93;;;1.38;;
30173;SDS011;16985;50.814;8.530;2023-04-03T13:58:59;9.93;;;1.40;;
30173;SDS011;16985;50.814;8.530;2023-04-03T14:01:47;6.65;;;1.48;;
30173;SDS011;16985;50.814;8.530;2023-04-03T14:04:29;4.63;;;1.60;;
30173;SDS011;16985;50.814;8.530;2023-04-03T14:06:58;6.15;;;1.48;;
30173;SDS011;16985;50.814;8.530;2023-04-03T14:09:26;3.72;;;1.60;;
30173;SDS011;16985;50.814;8.530;2023-04-03T14:11:54;4.63;;;1.35;;
30173;SDS011;16985;50.814;8.530;2023-04-03T14:14:30;4.20;;;1.38;;
30173;SDS011;16985;50.814;8.530;2023-04-03T14:17:00;3.70;;;1.50;;
30173;SDS011;16985;50.814;8.530;2023-04-03T14:19:30;3.33;;;1.40;;
30173;SDS011;16985;50.814;8.530;2023-04-03T14:22:03;4.63;;;1.42;;
30173;SDS011;16985;50.814;8.530;2023-04-03T14:24:54;3.15;;;1.30;;
30173;SDS011;16985;50.814;8.530;2023-04-03T14:27:28;4.45;;;1.10;;
30173;SDS011;16985;50.814;8.530;2023-04-03T14:30:08;2.80;;;1.45;;
30173;SDS011;16985;50.814;8.530;2023-04-03T14:32:40;7.70;;;1.55;;
30173;SDS011;16985;50.814;8.530;2023-04-03T14:35:06;3.78;;;1.48;;
30173;SDS011;16985;50.814;8.530;2023-04-03T14:37:33;2.90;;;1.20;;
30173;SDS011;16985;50.814;8.530;2023-04-03T14:39:59;5.05;;;1.70;;
30173;SDS011;16985;50.814;8.530;2023-04-03T14:42:30;4.10;;;1.30;;
30173;SDS011;16985;50.814;8.530;2023-04-03T14:44:59;3.55;;;1.70;;
30173;SDS011;16985;50.814;8.530;2023-04-03T14:47:29;4.88;;;1.35;;
30173;SDS011;16985;50.814;8.530;2023-04-03T14:49:55;2.20;;;1.20;;
30173;SDS011;16985;50.814;8.530;2023-04-03T14:52:23;2.05;;;1.33;;
30173;SDS011;16985;50.814;8.530;2023-04-03T14:54:58;1.95;;;1.10;;
30173;SDS011;16985;50.814;8.530;2023-04-03T14:57:26;2.92;;;1.48;;
30173;SDS011;16985;50.814;8.530;2023-04-03T14:59:53;5.45;;;1.80;;
30173;SDS011;16985;50.814;8.530;2023-04-03T15:02:28;2.83;;;1.35;;
30173;SDS011;16985;50.814;8.530;2023-04-03T15:04:59;4.72;;;1.45;;
30173;SDS011;16985;50.814;8.530;2023-04-03T15:07:29;3.53;;;1.50;;
30173;SDS011;16985;50.814;8.530;2023-04-03T15:10:19;4.25;;;1.40;;
30173;SDS011;16985;50.814;8.530;2023-04-03T15:12:50;3.92;;;1.48;;
30173;SDS011;16985;50.814;8.530;2023-04-03T15:15:18;3.92;;;1.60;;
30173;SDS011;16985;50.814;8.530;2023-04-03T15:17:45;3.13;;;1.60;;
30173;SDS011;16985;50.814;8.530;2023-04-03T15:20:20;4.05;;;1.42;;
30173;SDS011;16985;50.814;8.530;2023-04-03T15:22:48;8.77;;;1.70;;
30173;SDS011;16985;50.814;8.530;2023-04-03T15:25:14;2.90;;;1.60;;
30173;SDS011;16985;50.814;8.530;2023-04-03T15:27:41;4.68;;;1.58;;
30173;SDS011;16985;50.814;8.530;2023-04-03T15:30:08;4.43;;;1.77;;
30173;SDS011;16985;50.814;8.530;2023-04-03T15:32:40;3.15;;;1.40;;
30173;SDS011;16985;50.814;8.530;2023-04-03T15:35:06;5.55;;;1.60;;
30173;SDS011;16985;50.814;8.530;2023-04-03T15:37:32;5.60;;;1.77;;
30173;SDS011;16985;50.814;8.530;2023-04-03T15:39:58;7.43;;;2.00;;
30173;SDS011;16985;50.814;8.530;2023-04-03T15:42:24;7.82;;;1.85;;
30173;SDS011;16985;50.814;8.530;2023-04-03T15:44:50;2.63;;;1.48;;
30173;SDS011;16985;50.814;8.530;2023-04-03T15:47:16;2.90;;;1.65;;
30173;SDS011;16985;50.814;8.530;2023-04-03T15:49:41;2.88;;;1.50;;
30173;SDS011;16985;50.814;8.530;2023-04-03T15:52:07;7.00;;;1.80;;
30173;SDS011;16985;50.814;8.530;2023-04-03T15:54:33;4.88;;;1.88;;
30173;SDS011;16985;50.814;8.530;2023-04-03T15:56:59;4.80;;;1.92;;
30173;SDS011;16985;50.814;8.530;2023-04-03T15:59:26;3.00;;;1.58;;
30173;SDS011;16985;50.814;8.530;2023-04-03T16:01:54;3.38;;;1.65;;
30173;SDS011;16985;50.814;8.530;2023-04-03T16:04:20;5.68;;;1.83;;
30173;SDS011;16985;50.814;8.530;2023-04-03T16:06:46;6.20;;;1.60;;
30173;SDS011;16985;50.814;8.530;2023-04-03T16:09:13;2.40;;;1.27;;
30173;SDS011;16985;50.814;8.530;2023-04-03T16:11:39;5.82;;;1.52;;
30173;SDS011;16985;50.814;8.530;2023-04-03T16:14:08;5.90;;;1.63;;
30173;SDS011;16985;50.814;8.530;2023-04-03T16:16:35;5.85;;;1.92;;
30173;SDS011;16985;50.814;8.530;2023-04-03T16:19:01;6.22;;;1.80;;
30173;SDS011;16985;50.814;8.530;2023-04-03T16:21:27;6.18;;;1.70;;
30173;SDS011;16985;50.814;8.530;2023-04-03T16:23:55;4.30;;;1.77;;
30173;SDS011;16985;50.814;8.530;2023-04-03T16:26:23;3.35;;;1.48;;
30173;SDS011;16985;50.814;8.530;2023-04-03T16:28:50;7.10;;;2.15;;
30173;SDS011;16985;50.814;8.530;2023-04-03T16:31:16;6.07;;;2.30;;
30173;SDS011;16985;50.814;8.530;2023-04-03T16:33:42;5.15;;;1.90;;
30173;SDS011;16985;50.814;8.530;2023-04-03T16:36:09;4.97;;;1.60;;
30173;SDS011;16985;50.814;8.530;2023-04-03T16:38:35;3.83;;;1.70;;
30173;SDS011;16985;50.814;8.530;2023-04-03T16:41:01;9.35;;;2.03;;
30173;SDS011;16985;50.814;8.530;2023-04-03T16:43:30;2.08;;;1.60;;
30173;SDS011;16985;50.814;8.530;2023-04-03T16:45:57;4.00;;;2.10;;
30173;SDS011;16985;50.814;8.530;2023-04-03T16:48:23;6.30;;;1.73;;
30173;SDS011;16985;50.814;8.530;2023-04-03T16:50:49;4.25;;;1.90;;
30173;SDS011;16985;50.814;8.530;2023-04-03T16:53:19;5.40;;;2.42;;
30173;SDS011;16985;50.814;8.530;2023-04-03T16:55:49;9.82;;;2.35;;
30173;SDS011;16985;50.814;8.530;2023-04-03T16:58:16;4.53;;;1.88;;
30173;SDS011;16985;50.814;8.530;2023-04-03T17:00:42;7.18;;;2.00;;
30173;SDS011;16985;50.814;8.530;2023-04-03T17:03:08;6.45;;;2.20;;
30173;SDS011;16985;50.814;8.530;2023-04-03T17:05:35;4.00;;;2.63;;
30173;SDS011;16985;50.814;8.530;2023-04-03T17:08:01;3.47;;;1.83;;
30173;SDS011;16985;50.814;8.530;2023-04-03T17:10:27;3.15;;;1.88;;